createdAt,value
2022-08-26T00:07:16.340Z,101292.00
2022-08-26T00:17:40.398Z,101295.00
2022-08-26T00:28:04.005Z,101288.00
2022-08-26T00:38:26.099Z,101274.00
2022-08-26T00:48:54.905Z,101269.00
2022-08-26T00:59:18.647Z,101270.00
2022-08-26T01:09:41.341Z,101261.00
2022-08-26T01:20:11.495Z,101260.00
2022-08-26T01:30:38.610Z,101265.00
2022-08-26T01:41:02.701Z,101258.00
2022-08-26T01:51:27.413Z,101251.00
2022-08-26T02:01:49.873Z,101249.00
2022-08-26T02:12:17.767Z,101259.00
2022-08-26T02:22:40.391Z,101250.00
2022-08-26T02:33:04.463Z,101237.00
2022-08-26T02:43:32.686Z,101244.00
2022-08-26T02:53:55.954Z,101236.00
2022-08-26T03:04:17.974Z,101225.00
2022-08-26T03:14:41.690Z,101222.00
2022-08-26T03:25:04.622Z,101214.00
2022-08-26T03:35:27.590Z,101208.00
2022-08-26T03:45:50.802Z,101201.00
2022-08-26T03:56:14.883Z,101200.00
2022-08-26T04:06:40.077Z,101199.00
2022-08-26T04:17:05.008Z,101209.00
2022-08-26T04:27:27.489Z,101205.00
2022-08-26T04:37:51.073Z,101185.00
2022-08-26T04:48:12.865Z,101182.00
2022-08-26T04:58:41.195Z,101190.00
2022-08-26T05:09:03.228Z,101192.00
2022-08-26T05:19:27.922Z,101192.00
2022-08-26T05:29:54.572Z,101199.00
2022-08-26T05:40:18.491Z,101207.00
2022-08-26T05:50:43.712Z,101211.00
2022-08-26T06:01:12.297Z,101208.00
2022-08-26T06:11:34.308Z,101207.00
2022-08-26T06:21:57.254Z,101212.00
2022-08-26T06:32:18.628Z,101192.00
2022-08-26T06:42:43.059Z,101170.00
2022-08-26T06:53:07.284Z,101182.00
2022-08-26T07:03:32.925Z,101194.00
2022-08-26T07:14:01.817Z,101191.00
2022-08-26T07:24:24.736Z,101193.00
2022-08-26T07:34:50.738Z,101186.00
2022-08-26T07:45:14.101Z,101171.00
2022-08-26T07:55:36.019Z,101174.00
2022-08-26T08:06:00.700Z,101169.00
2022-08-26T08:16:22.769Z,101155.00
2022-08-26T08:26:48.143Z,101165.00
2022-08-26T08:37:10.840Z,101153.00
2022-08-26T08:47:38.348Z,101147.00
2022-08-26T08:58:08.053Z,101140.00
2022-08-26T09:08:36.850Z,101138.00
2022-08-26T09:19:07.305Z,101138.00
2022-08-26T09:29:32.038Z,101137.00
2022-08-26T09:39:53.719Z,101125.00
2022-08-26T09:50:29.202Z,101114.00
2022-08-26T10:00:57.320Z,101106.00
2022-08-26T10:11:27.026Z,101091.00
2022-08-26T10:21:54.050Z,101055.00
2022-08-26T10:32:25.203Z,101035.00
2022-08-26T10:42:53.206Z,101012.00
2022-08-26T10:53:24.850Z,101020.00
2022-08-26T11:03:54.939Z,101014.00
2022-08-26T11:14:40.715Z,101000.00
2022-08-26T11:25:16.108Z,101016.00
2022-08-26T11:35:49.456Z,101011.00
2022-08-26T11:46:13.007Z,101032.00
2022-08-26T11:56:38.087Z,101060.00
2022-08-26T12:07:13.358Z,244657.00
2022-08-26T12:18:20.531Z,244657.00
